createdAt,value
2019-02-22T00:00:59.128Z,2.00
2019-02-22T00:03:29.539Z,2.10
2019-02-22T00:05:59.896Z,2.20
2019-02-22T00:08:31.415Z,2.20
2019-02-22T00:11:01.739Z,2.20
2019-02-22T00:13:32.124Z,2.20
2019-02-22T00:16:02.683Z,2.10
2019-02-22T00:18:33.127Z,2.10
2019-02-22T00:21:03.732Z,2.10
2019-02-22T00:23:34.268Z,2.10
2019-02-22T00:26:04.903Z,2.00
2019-02-22T00:28:36.292Z,1.80
2019-02-22T00:31:06.732Z,1.70
2019-02-22T00:33:37.089Z,1.70
2019-02-22T00:36:07.698Z,1.70
2019-02-22T00:38:38.207Z,1.80
2019-02-22T00:41:08.611Z,1.90
2019-02-22T00:43:39.055Z,1.90
2019-02-22T00:46:09.415Z,1.90
2019-02-22T00:48:39.703Z,1.80
2019-02-22T00:51:10.079Z,1.70
2019-02-22T00:53:40.608Z,1.60
2019-02-22T00:56:10.973Z,1.50
2019-02-22T00:58:41.411Z,1.40
2019-02-22T01:01:11.737Z,1.30
2019-02-22T01:03:42.169Z,1.40
2019-02-22T01:06:12.475Z,1.40
2019-02-22T01:08:42.940Z,1.40
2019-02-22T01:11:13.291Z,1.50
2019-02-22T01:13:43.595Z,1.40
2019-02-22T01:16:14.110Z,1.30
2019-02-22T01:18:44.523Z,1.30
2019-02-22T01:21:14.876Z,1.20
2019-02-22T01:23:45.313Z,1.10
2019-02-22T01:26:15.924Z,1.10
2019-02-22T01:28:46.358Z,1.10
2019-02-22T01:31:17.763Z,1.00
2019-02-22T01:33:48.170Z,1.00
2019-02-22T01:36:18.445Z,1.10
2019-02-22T01:38:49.103Z,1.20
2019-02-22T01:41:19.455Z,1.30
2019-02-22T01:43:49.926Z,1.30
2019-02-22T01:46:20.384Z,1.40
2019-02-22T01:48:50.651Z,1.50
2019-02-22T01:51:21.985Z,1.60
2019-02-22T01:53:54.082Z,1.70
2019-02-22T01:56:24.648Z,1.70
2019-02-22T01:58:54.986Z,1.70
2019-02-22T02:01:25.334Z,1.70
2019-02-22T02:03:56.091Z,1.70
2019-02-22T02:06:26.916Z,1.60
2019-02-22T02:08:57.458Z,1.70
2019-02-22T02:11:28.866Z,1.70
2019-02-22T02:13:59.225Z,1.70
2019-02-22T02:16:30.839Z,1.70
2019-02-22T02:19:01.199Z,1.60
2019-02-22T02:21:31.661Z,1.60
2019-02-22T02:24:02.292Z,1.40
2019-02-22T02:26:32.659Z,1.30
2019-02-22T02:29:03.112Z,1.20
2019-02-22T02:31:33.573Z,1.20
2019-02-22T02:34:03.887Z,1.10
2019-02-22T02:36:35.297Z,1.00
2019-02-22T02:39:07.214Z,1.00
2019-02-22T02:41:39.202Z,1.10
2019-02-22T02:44:09.715Z,1.20
2019-02-22T02:46:40.079Z,1.20
2019-02-22T02:49:10.448Z,1.30
2019-02-22T02:51:40.859Z,1.30
2019-02-22T02:54:11.405Z,1.40
2019-02-22T02:56:41.963Z,1.40
2019-02-22T02:59:12.488Z,1.40
2019-02-22T03:01:42.844Z,1.40
2019-02-22T03:04:14.190Z,1.40
2019-02-22T03:06:52.808Z,1.40
2019-02-22T03:09:23.367Z,1.30
2019-02-22T03:11:53.772Z,1.20
2019-02-22T03:14:24.152Z,1.20
2019-02-22T03:16:54.772Z,1.20
2019-02-22T03:19:25.291Z,1.10
2019-02-22T03:21:55.712Z,1.10
2019-02-22T03:24:26.206Z,1.00
2019-02-22T03:26:56.582Z,1.00
2019-02-22T03:29:27.083Z,1.00
2019-02-22T03:31:57.462Z,1.00
2019-02-22T03:34:27.865Z,1.00
2019-02-22T03:36:58.236Z,1.00
2019-02-22T03:39:28.743Z,0.90
2019-02-22T03:41:59.067Z,0.90
2019-02-22T03:44:29.523Z,0.90
2019-02-22T03:46:59.907Z,0.90
2019-02-22T03:49:30.407Z,0.90
2019-02-22T03:52:17.912Z,0.90
2019-02-22T03:54:48.476Z,0.90
2019-02-22T03:57:18.880Z,0.90
2019-02-22T03:59:51.211Z,0.90
2019-02-22T04:02:21.370Z,0.90
2019-02-22T04:04:51.659Z,1.00
2019-02-22T04:07:22.060Z,1.00
2019-02-22T04:09:52.747Z,1.00
2019-02-22T04:12:23.056Z,1.10
2019-02-22T04:14:53.468Z,1.10
2019-02-22T04:17:23.835Z,1.20
2019-02-22T04:19:54.320Z,1.20
2019-02-22T04:22:24.687Z,1.20
2019-02-22T04:24:55.060Z,1.20
2019-02-22T04:27:25.583Z,1.20
2019-02-22T04:29:55.920Z,1.20
2019-02-22T04:32:26.533Z,1.20
2019-02-22T04:34:56.852Z,1.20
2019-02-22T04:37:27.155Z,1.10
2019-02-22T04:39:57.593Z,1.20
2019-02-22T04:42:27.939Z,1.10
2019-02-22T04:44:58.293Z,1.10
2019-02-22T04:47:28.615Z,1.10
2019-02-22T04:49:59.058Z,1.10
2019-02-22T04:52:29.371Z,1.00
2019-02-22T04:54:59.973Z,1.10
2019-02-22T04:57:30.332Z,1.20
2019-02-22T05:00:00.795Z,1.10
2019-02-22T05:02:31.395Z,1.00
2019-02-22T05:05:01.705Z,1.10
2019-02-22T05:07:32.332Z,1.00
2019-02-22T05:10:03.083Z,1.00
2019-02-22T05:12:34.549Z,1.00
2019-02-22T05:15:12.448Z,0.80
2019-02-22T05:17:37.264Z,0.60
2019-02-22T05:20:07.835Z,0.50
2019-02-22T05:22:38.561Z,0.40
2019-02-22T05:25:09.249Z,0.30
2019-02-22T05:27:40.034Z,0.30
2019-02-22T05:30:10.440Z,0.20
2019-02-22T05:32:41.243Z,0.10
2019-02-22T05:35:11.575Z,0.10
2019-02-22T05:37:42.040Z,0.00
2019-02-22T05:40:12.608Z,0.00
2019-02-22T05:42:43.124Z,0.00
2019-02-22T05:45:13.660Z,-0.10
2019-02-22T05:47:44.936Z,-0.20
2019-02-22T05:50:15.485Z,-0.20
2019-02-22T05:52:45.885Z,-0.10
2019-02-22T05:55:16.248Z,-0.20
2019-02-22T05:57:46.699Z,-0.30
2019-02-22T06:00:17.723Z,-0.20
2019-02-22T06:02:48.205Z,-0.30
2019-02-22T06:05:18.711Z,-0.30
2019-02-22T06:07:49.191Z,-0.40
2019-02-22T06:10:19.800Z,-0.40
2019-02-22T06:12:50.166Z,-0.40
2019-02-22T06:15:20.517Z,-0.40
2019-02-22T06:17:51.064Z,-0.30
2019-02-22T06:20:21.489Z,-0.40
2019-02-22T06:22:51.819Z,-0.50
2019-02-22T06:25:22.403Z,-0.40
2019-02-22T06:27:53.137Z,-0.40
2019-02-22T06:30:23.505Z,-0.50
2019-02-22T06:32:54.208Z,-0.50
2019-02-22T06:35:24.621Z,-0.50
2019-02-22T06:37:54.917Z,-0.50
2019-02-22T06:40:25.528Z,-0.40
2019-02-22T06:42:55.892Z,-0.40
2019-02-22T06:45:26.297Z,-0.40
2019-02-22T06:47:56.649Z,-0.30
2019-02-22T06:50:33.792Z,-0.30
2019-02-22T06:52:58.919Z,-0.30
2019-02-22T06:55:29.479Z,-0.30
2019-02-22T06:57:59.872Z,-0.20
2019-02-22T07:00:30.189Z,-0.20
2019-02-22T07:03:00.767Z,-0.20
2019-02-22T07:05:31.133Z,-0.20
2019-02-22T07:08:01.480Z,-0.10
2019-02-22T07:10:50.924Z,-0.10
2019-02-22T07:13:21.522Z,0.00
2019-02-22T07:15:51.895Z,0.00
2019-02-22T07:18:22.347Z,0.10
2019-02-22T07:20:52.645Z,0.10
2019-02-22T07:23:22.955Z,0.20
2019-02-22T07:25:53.579Z,0.20
2019-02-22T07:28:23.953Z,0.30
2019-02-22T07:30:54.251Z,0.30
2019-02-22T07:33:24.672Z,0.30
2019-02-22T07:35:55.017Z,0.30
2019-02-22T07:38:25.461Z,0.30
2019-02-22T07:40:55.978Z,0.30
2019-02-22T07:43:26.277Z,0.40
2019-02-22T07:45:56.680Z,0.50
2019-02-22T07:48:27.043Z,0.50
2019-02-22T07:50:58.443Z,0.50
2019-02-22T07:53:28.972Z,0.50
2019-02-22T07:55:59.502Z,0.50
2019-02-22T07:58:29.782Z,0.50
2019-02-22T08:01:00.303Z,0.50
2019-02-22T08:03:30.595Z,0.60
2019-02-22T08:06:01.055Z,0.60
2019-02-22T08:08:31.415Z,0.70
2019-02-22T08:11:01.839Z,0.70
2019-02-22T08:13:33.299Z,0.80
2019-02-22T08:16:03.685Z,0.80
2019-02-22T08:18:34.048Z,0.80
2019-02-22T08:21:04.564Z,0.80
2019-02-22T08:23:34.895Z,0.90
2019-02-22T08:26:05.574Z,1.00
2019-02-22T08:28:36.120Z,1.00
2019-02-22T08:31:06.569Z,1.00
2019-02-22T08:33:37.082Z,1.10
2019-02-22T08:36:07.451Z,1.20
2019-02-22T08:38:37.831Z,1.20
2019-02-22T08:41:08.315Z,1.30
2019-02-22T08:43:38.633Z,1.20
2019-02-22T08:46:09.214Z,1.30
2019-02-22T08:48:39.493Z,1.30
2019-02-22T08:51:09.850Z,1.40
2019-02-22T08:53:40.299Z,1.40
2019-02-22T08:56:10.736Z,1.40
2019-02-22T08:58:41.208Z,1.50
2019-02-22T09:01:11.530Z,1.50
2019-02-22T09:03:49.876Z,1.50
2019-02-22T09:06:13.778Z,1.50
2019-02-22T09:08:44.123Z,1.60
2019-02-22T09:11:14.755Z,1.60
2019-02-22T09:13:45.039Z,1.70
2019-02-22T09:16:15.541Z,1.80
2019-02-22T09:18:45.889Z,1.80
2019-02-22T09:21:16.279Z,1.90
2019-02-22T09:23:48.064Z,2.00
2019-02-22T09:26:19.048Z,2.20
2019-02-22T09:28:52.498Z,2.40
2019-02-22T09:31:22.856Z,2.50
2019-02-22T09:33:53.403Z,2.70
2019-02-22T09:36:23.715Z,2.80
2019-02-22T09:38:54.200Z,3.10
2019-02-22T09:41:24.607Z,3.30
2019-02-22T09:43:55.801Z,3.60
2019-02-22T09:46:26.291Z,3.90
2019-02-22T09:48:56.674Z,4.00
2019-02-22T09:51:26.959Z,4.00
2019-02-22T09:53:57.267Z,4.10
2019-02-22T09:56:27.847Z,3.90
2019-02-22T09:58:58.172Z,4.00
2019-02-22T10:01:28.542Z,4.10
2019-02-22T10:03:59.055Z,4.20
2019-02-22T10:06:29.351Z,4.20
2019-02-22T10:08:59.819Z,4.50
2019-02-22T10:11:30.345Z,4.70
2019-02-22T10:14:06.783Z,4.80
2019-02-22T10:16:32.575Z,4.80
2019-02-22T10:19:03.080Z,4.70
2019-02-22T10:21:33.488Z,4.70
2019-02-22T10:24:03.795Z,4.80
2019-02-22T10:26:34.295Z,4.90
2019-02-22T10:29:04.796Z,5.20
2019-02-22T10:31:35.183Z,5.50
2019-02-22T10:34:05.691Z,5.40
2019-02-22T10:36:44.716Z,5.60
2019-02-22T10:39:08.043Z,5.60
2019-02-22T10:41:40.166Z,5.40
2019-02-22T10:44:17.830Z,5.00
2019-02-22T10:46:42.513Z,5.00
2019-02-22T10:49:12.936Z,5.00
2019-02-22T10:51:43.323Z,5.10
2019-02-22T10:54:13.627Z,5.10
2019-02-22T10:56:44.150Z,5.10
2019-02-22T10:59:14.528Z,5.10
2019-02-22T11:01:44.851Z,5.20
2019-02-22T11:04:15.190Z,5.40
2019-02-22T11:06:45.547Z,5.20
2019-02-22T11:09:17.051Z,5.20
2019-02-22T11:11:47.592Z,5.30
2019-02-22T11:14:28.387Z,5.20
2019-02-22T11:16:49.909Z,5.10
2019-02-22T11:19:20.334Z,5.40
2019-02-22T11:21:50.691Z,5.70
2019-02-22T11:24:21.207Z,6.00
2019-02-22T11:26:52.588Z,5.80
2019-02-22T11:29:22.995Z,5.80
2019-02-22T11:31:53.415Z,5.70
2019-02-22T11:34:23.775Z,5.60
2019-02-22T11:36:54.115Z,5.60
2019-02-22T11:39:24.470Z,5.70
2019-02-22T11:41:55.063Z,5.80
2019-02-22T11:44:25.658Z,5.70
2019-02-22T11:46:56.372Z,5.90
2019-02-22T11:49:26.840Z,5.50
2019-02-22T11:51:57.372Z,5.30
2019-02-22T11:54:27.879Z,5.60
2019-02-22T11:56:58.660Z,5.70
2019-02-22T11:59:29.012Z,5.70
2019-02-22T12:01:59.677Z,6.00
2019-02-22T12:04:30.035Z,6.20
2019-02-22T12:07:01.899Z,6.20
2019-02-22T12:09:32.240Z,6.60
2019-02-22T12:12:02.824Z,7.20
2019-02-22T12:14:33.311Z,8.20
2019-02-22T12:17:03.655Z,9.00
2019-02-22T12:19:34.294Z,10.70
2019-02-22T12:22:04.803Z,14.00
2019-02-22T12:24:35.288Z,14.20
2019-02-22T12:27:05.845Z,15.30
2019-02-22T12:29:36.563Z,18.00
2019-02-22T12:32:07.068Z,19.10
2019-02-22T12:34:37.735Z,18.90
2019-02-22T12:37:09.008Z,20.60
2019-02-22T12:39:39.411Z,21.10
2019-02-22T12:42:15.975Z,17.60
2019-02-22T12:45:02.451Z,16.80
2019-02-22T12:47:24.759Z,14.90
2019-02-22T12:49:55.141Z,12.30
2019-02-22T12:52:25.523Z,10.80
2019-02-22T12:54:55.936Z,10.00
2019-02-22T12:57:26.407Z,9.40
2019-02-22T12:59:56.843Z,9.00
2019-02-22T13:02:27.243Z,8.50
2019-02-22T13:04:57.657Z,8.10
2019-02-22T13:07:28.076Z,8.00
2019-02-22T13:09:58.535Z,7.80
2019-02-22T13:12:29.078Z,7.00
2019-02-22T13:14:59.383Z,7.50
2019-02-22T13:17:31.106Z,7.00
2019-02-22T13:20:02.064Z,6.80
2019-02-22T13:22:32.415Z,8.80
2019-02-22T13:25:02.933Z,8.80
2019-02-22T13:27:33.615Z,10.40
2019-02-22T13:30:04.788Z,10.80
2019-02-22T13:32:35.072Z,10.10
2019-02-22T13:35:06.239Z,10.00
2019-02-22T13:37:36.834Z,9.30
2019-02-22T13:40:08.488Z,8.40
2019-02-22T13:42:39.131Z,8.10
2019-02-22T13:45:10.251Z,7.50
2019-02-22T13:47:40.539Z,7.60
2019-02-22T13:50:12.855Z,7.20
2019-02-22T13:52:43.331Z,6.90
2019-02-22T13:55:14.471Z,6.80
2019-02-22T13:57:45.076Z,6.50
2019-02-22T14:00:17.435Z,6.10
2019-02-22T14:02:48.172Z,5.80
2019-02-22T14:05:19.956Z,6.00
2019-02-22T14:07:54.315Z,5.80
2019-02-22T14:10:25.357Z,6.10
2019-02-22T14:12:56.135Z,5.60
2019-02-22T14:15:37.091Z,5.90
2019-02-22T14:17:58.687Z,5.70
2019-02-22T14:20:29.075Z,5.70
2019-02-22T14:22:59.504Z,5.50
2019-02-22T14:25:29.927Z,5.40
2019-02-22T14:28:00.541Z,5.20
2019-02-22T14:30:30.959Z,4.70
2019-02-22T14:33:01.235Z,4.80
2019-02-22T14:35:31.807Z,5.00
2019-02-22T14:38:02.266Z,4.80
2019-02-22T14:40:32.621Z,4.60
2019-02-22T14:43:03.044Z,4.50
2019-02-22T14:45:33.459Z,4.00
2019-02-22T14:48:03.864Z,3.80
2019-02-22T14:50:34.295Z,3.60
2019-02-22T14:53:04.683Z,3.70
2019-02-22T14:55:35.523Z,3.90
2019-02-22T14:58:06.484Z,4.10
2019-02-22T15:00:37.037Z,3.80
2019-02-22T15:03:07.861Z,4.10
2019-02-22T15:05:38.123Z,4.10
2019-02-22T15:08:08.899Z,4.00
2019-02-22T15:10:39.311Z,4.00
2019-02-22T15:13:12.578Z,3.80
2019-02-22T15:16:10.267Z,3.90
2019-02-22T15:18:40.703Z,3.90
2019-02-22T15:21:11.044Z,3.80
2019-02-22T15:23:41.460Z,3.80
2019-02-22T15:26:11.767Z,3.70
2019-02-22T15:28:42.175Z,3.70
2019-02-22T15:31:12.631Z,3.60
2019-02-22T15:33:43.077Z,3.50
2019-02-22T15:36:15.982Z,3.40
2019-02-22T15:38:45.597Z,3.30
2019-02-22T15:41:15.901Z,3.40
2019-02-22T15:43:46.275Z,3.20
2019-02-22T15:46:16.727Z,3.30
2019-02-22T15:48:47.019Z,3.30
2019-02-22T15:51:17.357Z,3.40
2019-02-22T15:53:48.808Z,3.30
2019-02-22T15:56:19.217Z,3.30
2019-02-22T15:58:49.838Z,3.20
2019-02-22T16:01:20.208Z,3.10
2019-02-22T16:04:09.967Z,3.10
2019-02-22T16:06:40.415Z,3.10
2019-02-22T16:09:11.794Z,3.10
2019-02-22T16:11:43.873Z,3.00
2019-02-22T16:14:14.224Z,3.00
2019-02-22T16:16:44.563Z,2.90
2019-02-22T16:19:14.899Z,3.00
2019-02-22T16:21:45.246Z,2.90
2019-02-22T16:24:15.552Z,2.90
2019-02-22T16:26:45.901Z,2.80
2019-02-22T16:29:16.410Z,2.80
2019-02-22T16:31:47.084Z,2.80
2019-02-22T16:34:17.411Z,2.90
2019-02-22T16:36:48.044Z,2.90
2019-02-22T16:39:18.411Z,2.90
2019-02-22T16:41:49.012Z,2.90
2019-02-22T16:44:19.415Z,2.90
2019-02-22T16:46:49.883Z,2.80
2019-02-22T16:49:20.243Z,2.70
2019-02-22T16:51:50.559Z,2.60
2019-02-22T16:54:21.208Z,2.50
2019-02-22T16:56:51.585Z,2.40
2019-02-22T16:59:22.327Z,2.30
2019-02-22T17:01:52.725Z,2.20
2019-02-22T17:04:23.270Z,2.20
2019-02-22T17:06:53.635Z,2.10
2019-02-22T17:09:24.139Z,2.10
2019-02-22T17:12:05.829Z,2.10
2019-02-22T17:14:26.982Z,2.00
2019-02-22T17:16:57.317Z,2.00
2019-02-22T17:19:27.655Z,2.00
2019-02-22T17:21:58.187Z,1.90
2019-02-22T17:24:28.642Z,1.90
2019-02-22T17:26:59.317Z,2.00
2019-02-22T17:29:29.939Z,2.00
2019-02-22T17:32:00.527Z,2.00
2019-02-22T17:34:30.987Z,2.10
2019-02-22T17:37:01.703Z,2.20
2019-02-22T17:39:32.099Z,2.30
2019-02-22T17:42:02.667Z,2.30
2019-02-22T17:44:33.039Z,2.40
2019-02-22T17:47:03.539Z,2.40
2019-02-22T17:49:33.956Z,2.60
2019-02-22T17:52:04.743Z,2.30
2019-02-22T17:54:35.299Z,2.30
2019-02-22T17:57:05.963Z,2.20
2019-02-22T17:59:36.674Z,2.10
2019-02-22T18:02:07.296Z,2.10
2019-02-22T18:04:37.815Z,2.00
2019-02-22T18:07:08.236Z,1.90
2019-02-22T18:09:38.611Z,1.90
2019-02-22T18:12:09.444Z,1.90
2019-02-22T18:14:40.139Z,1.80
2019-02-22T18:17:10.655Z,1.70
2019-02-22T18:19:41.163Z,1.80
2019-02-22T18:22:11.713Z,1.90
2019-02-22T18:24:42.183Z,2.00
2019-02-22T18:27:12.511Z,2.10
2019-02-22T18:29:43.153Z,2.10
2019-02-22T18:32:13.523Z,2.20
2019-02-22T18:34:44.035Z,2.30
2019-02-22T18:37:14.565Z,2.40
2019-02-22T18:39:45.247Z,2.50
2019-02-22T18:42:15.928Z,2.60
2019-02-22T18:44:46.740Z,2.60
2019-02-22T18:47:19.806Z,2.70
2019-02-22T18:49:49.613Z,2.80
2019-02-22T18:52:20.855Z,2.80
2019-02-22T18:54:51.536Z,2.90
2019-02-22T18:57:21.995Z,2.90
2019-02-22T18:59:53.007Z,2.90
2019-02-22T19:02:23.375Z,2.90
2019-02-22T19:04:56.624Z,2.90
2019-02-22T19:07:27.418Z,2.90
2019-02-22T19:09:57.991Z,2.90
2019-02-22T19:12:28.575Z,2.90
2019-02-22T19:14:59.263Z,2.90
2019-02-22T19:17:30.657Z,2.80
2019-02-22T19:20:01.321Z,2.70
2019-02-22T19:22:32.987Z,2.70
2019-02-22T19:25:03.535Z,2.80
2019-02-22T19:27:33.895Z,2.80
2019-02-22T19:30:04.599Z,2.90
2019-02-22T19:32:34.975Z,2.90
2019-02-22T19:35:05.702Z,2.90
2019-02-22T19:37:36.139Z,2.90
2019-02-22T19:40:08.707Z,3.00
2019-02-22T19:42:39.022Z,3.00
2019-02-22T19:45:10.743Z,3.10
2019-02-22T19:47:42.147Z,3.10
2019-02-22T19:50:13.366Z,3.20
2019-02-22T19:52:43.636Z,3.20
2019-02-22T19:55:14.796Z,3.20
2019-02-22T19:57:45.119Z,3.20
2019-02-22T20:00:16.598Z,3.30
2019-02-22T20:02:47.003Z,3.20
2019-02-22T20:05:17.455Z,3.30
2019-02-22T20:07:48.082Z,3.20
2019-02-22T20:10:18.701Z,3.20
2019-02-22T20:12:49.363Z,3.30
2019-02-22T20:15:20.949Z,3.20
2019-02-22T20:17:54.542Z,3.30
2019-02-22T20:20:23.521Z,3.30
2019-02-22T20:22:53.919Z,3.30
2019-02-22T20:25:24.497Z,3.30
2019-02-22T20:27:54.915Z,3.30
2019-02-22T20:30:25.388Z,3.40
2019-02-22T20:32:55.928Z,3.30
2019-02-22T20:35:26.540Z,3.40
2019-02-22T20:37:57.053Z,3.40
2019-02-22T20:40:27.570Z,3.40
2019-02-22T20:42:57.835Z,3.40
2019-02-22T20:45:28.543Z,3.40
2019-02-22T20:48:05.064Z,3.30
2019-02-22T20:50:31.025Z,3.20
2019-02-22T20:53:01.599Z,3.20
2019-02-22T20:55:32.519Z,3.10
2019-02-22T20:58:02.959Z,3.10
2019-02-22T21:00:33.453Z,3.00
2019-02-22T21:03:04.013Z,3.10
2019-02-22T21:05:34.512Z,3.10
2019-02-22T21:08:04.993Z,3.00
2019-02-22T21:10:35.423Z,3.00
2019-02-22T21:13:06.043Z,3.00
2019-02-22T21:15:36.566Z,3.10
2019-02-22T21:18:15.974Z,3.10
2019-02-22T21:20:39.260Z,3.10
2019-02-22T21:23:09.767Z,3.10
2019-02-22T21:25:40.443Z,3.10
2019-02-22T21:28:10.795Z,3.10
2019-02-22T21:30:41.536Z,3.10
2019-02-22T21:33:12.059Z,3.20
2019-02-22T21:35:42.731Z,3.20
2019-02-22T21:38:13.232Z,3.20
2019-02-22T21:40:43.752Z,3.30
2019-02-22T21:43:14.136Z,3.30
2019-02-22T21:45:44.916Z,3.30
2019-02-22T21:48:15.243Z,3.30
2019-02-22T21:50:45.580Z,3.30
2019-02-22T21:53:16.304Z,3.40
2019-02-22T21:55:46.696Z,3.40
2019-02-22T21:58:17.252Z,3.40
2019-02-22T22:00:47.771Z,3.40
2019-02-22T22:03:18.329Z,3.40
2019-02-22T22:05:48.799Z,3.40
2019-02-22T22:08:19.390Z,3.40
2019-02-22T22:10:49.728Z,3.40
2019-02-22T22:13:20.380Z,3.40
2019-02-22T22:15:51.828Z,3.40
2019-02-22T22:18:22.368Z,3.40
2019-02-22T22:20:52.675Z,3.30
2019-02-22T22:23:24.228Z,3.30
2019-02-22T22:25:54.573Z,3.40
2019-02-22T22:28:25.071Z,3.30
2019-02-22T22:30:55.591Z,3.30
2019-02-22T22:33:26.123Z,3.30
2019-02-22T22:35:56.860Z,3.40
2019-02-22T22:38:27.579Z,3.30
2019-02-22T22:40:58.013Z,3.30
2019-02-22T22:43:28.544Z,3.30
2019-02-22T22:45:59.020Z,3.30
2019-02-22T22:48:30.036Z,3.30
2019-02-22T22:51:00.359Z,3.30
2019-02-22T22:53:32.539Z,3.30
2019-02-22T22:56:03.005Z,3.40
2019-02-22T22:58:33.512Z,3.30
2019-02-22T23:01:12.661Z,3.30
2019-02-22T23:03:43.139Z,3.30
2019-02-22T23:06:14.642Z,3.30
2019-02-22T23:08:45.317Z,3.30
2019-02-22T23:11:15.804Z,3.30
2019-02-22T23:13:46.380Z,3.30
2019-02-22T23:16:16.982Z,3.30
2019-02-22T23:18:47.639Z,3.30
2019-02-22T23:21:18.240Z,3.30
2019-02-22T23:23:48.829Z,3.30
2019-02-22T23:26:19.228Z,3.30
2019-02-22T23:28:49.863Z,3.30
2019-02-22T23:31:20.571Z,3.20
2019-02-22T23:33:51.151Z,3.20
2019-02-22T23:36:21.487Z,3.20
2019-02-22T23:38:52.094Z,3.20
2019-02-22T23:41:58.689Z,3.10
2019-02-22T23:44:29.281Z,3.00
2019-02-22T23:46:59.683Z,2.90
2019-02-22T23:49:30.335Z,2.70
2019-02-22T23:52:00.732Z,2.70
2019-02-22T23:54:31.462Z,2.70
2019-02-22T23:57:02.033Z,2.70
2019-02-22T23:59:32.787Z,2.70
